Terminal Aerodrome Forecast
Issued by NWS

Home | Current Version | Previous Version | Text Only | Print | Product List | Glossary On
Versions: 1 2 3 4 5 6 7 8 9 10 11 12 13 14
000
FTUS43 KICT 202300
TAFSLN
TAF
KSLN 202322Z 2100/2124 07003KT P6SM SKC
     FM210500 16004KT P6SM SKC
     FM211100 12004KT 3SM BR SKC
     FM211500 17009KT P6SM SCT040=

USA.gov is the U.S. government's official web portal to all federal, state and local government web resources and services.